Terminal Aerodrome Forecast
Issued by NWS Binghamton, NY

Home | Current Version | Previous Version | Text Only | Print | Product List | Glossary On
Versions: 1 2 3 4 5 6 7 8 9 10 11 12 13 14 15
000
FTUS41 KBGM 300500 RRA
TAFSYR
TAF
KSYR 300545Z 3006/0106 VRB03KT P6SM SKC
     FM301400 15005KT P6SM SCT050 BKN150
     FM301800 15005KT P6SM BKN050 PROB30 3021/0101 3SM SHRA BR
      OVC025
     FM010300 VRB03KT 5SM BR BKN070=

USA.gov is the U.S. government's official web portal to all federal, state and local government web resources and services.